Time;durP1;ratioP1;P1;durP2;ratioP2;P2;SDS_P1;SDS_P2;PMS_P1;PMS_P2;Temp;Humidity;BMP_temperature;BMP_pressure;BME280_temperature;BME280_humidity;BME280_pressure;Samples;Min_cycle;Max_cycle;Signal;HPM_P1;HPM_P2
2021/11/08 00:00:28;;;;;;;15.25;10.2;;;;;;;6.5;63.11328;95468.97;;;;
2021/11/08 00:01:30;;;;;;;15.25;10.2;;;;;;;6.5;63.11328;95468.97;;;;
2021/11/08 00:02:33;;;;;;;15.25;10.2;;;;;;;6.5;63.11328;95468.97;;;;
2021/11/08 00:03:36;;;;;;;12.8;10;;;;;;;6.5;63.31641;95471.14;;;;
2021/11/08 00:04:37;;;;;;;12.8;10;;;;;;;6.5;63.31641;95471.14;;;;
2021/11/08 00:05:41;;;;;;;12.8;10;;;;;;;6.5;63.31641;95471.14;;;;
2021/11/08 00:06:42;;;;;;;12.8;10;;;;;;;6.5;63.31641;95471.14;;;;
2021/11/08 00:07:45;;;;;;;12.8;10;;;;;;;6.5;63.31641;95471.14;;;;
2021/11/08 00:08:46;;;;;;;12.8;10;;;;;;;6.5;63.31641;95471.14;;;;
2021/11/08 00:09:47;;;;;;;12.8;10;;;;;;;6.5;63.31641;95471.14;;;;
2021/11/08 00:10:48;;;;;;;12.8;10;;;;;;;6.5;63.31641;95471.14;;;;
2021/11/08 00:11:49;;;;;;;12.8;10;;;;;;;6.5;63.31641;95471.14;;;;
2021/11/08 00:12:49;;;;;;;12.8;10;;;;;;;6.5;63.31641;95471.14;;;;
2021/11/08 00:13:50;;;;;;;13.55;10;;;;;;;6.56;63.63379;95470.33;;;;
2021/11/08 00:14:54;;;;;;;13.55;10;;;;;;;6.56;63.63379;95470.33;;;;
2021/11/08 00:16:06;;;;;;;13.55;10;;;;;;;6.56;63.63379;95470.33;;;;
2021/11/08 00:17:15;;;;;;;13.55;10;;;;;;;6.56;63.63379;95470.33;;;;
2021/11/08 00:18:24;;;;;;;13.55;10;;;;;;;6.56;63.63379;95470.33;;;;
2021/11/08 00:19:43;;;;;;;13.55;10;;;;;;;6.56;63.63379;95470.33;;;;
2021/11/08 00:20:45;;;;;;;13.55;10;;;;;;;6.56;63.63379;95470.33;;;;
2021/11/08 00:21:48;;;;;;;13.55;10;;;;;;;6.56;63.63379;95470.33;;;;
2021/11/08 00:22:48;;;;;;;13.55;10;;;;;;;6.56;63.63379;95470.33;;;;
2021/11/08 00:23:50;;;;;;;13.55;10;;;;;;;6.56;63.63379;95470.33;;;;
2021/11/08 00:24:52;;;;;;;14.8;9.75;;;;;;;6.56;63.81445;95471.67;;;;
2021/11/08 00:25:52;;;;;;;14.8;9.75;;;;;;;6.56;63.81445;95471.67;;;;
2021/11/08 00:26:54;;;;;;;14.8;9.75;;;;;;;6.56;63.81445;95471.67;;;;
2021/11/08 00:27:55;;;;;;;14.8;9.75;;;;;;;6.56;63.81445;95471.67;;;;
2021/11/08 00:28:55;;;;;;;14.8;9.75;;;;;;;6.56;63.81445;95471.67;;;;
2021/11/08 00:29:56;;;;;;;14.8;9.75;;;;;;;6.56;63.81445;95471.67;;;;
2021/11/08 00:30:57;;;;;;;14.8;9.75;;;;;;;6.56;63.81445;95471.67;;;;
2021/11/08 00:31:57;;;;;;;14.8;9.75;;;;;;;6.56;63.81445;95471.67;;;;
2021/11/08 00:32:58;;;;;;;14.8;9.75;;;;;;;6.56;63.81445;95471.67;;;;
2021/11/08 00:33:59;;;;;;;14.8;9.75;;;;;;;6.56;63.81445;95471.67;;;;
2021/11/08 00:34:59;;;;;;;14.8;9.75;;;;;;;6.56;63.81445;95471.67;;;;
2021/11/08 00:36:00;;;;;;;15.05;10.4;;;;;;;6.57;64.14551;95480.94;;;;
2021/11/08 00:37:01;;;;;;;15.05;10.4;;;;;;;6.57;64.14551;95480.94;;;;
2021/11/08 00:38:03;;;;;;;15.05;10.4;;;;;;;6.57;64.14551;95480.94;;;;
2021/11/08 00:39:04;;;;;;;15.05;10.4;;;;;;;6.57;64.14551;95480.94;;;;
2021/11/08 00:40:06;;;;;;;15.05;10.4;;;;;;;6.57;64.14551;95480.94;;;;
2021/11/08 00:41:08;;;;;;;15.05;10.4;;;;;;;6.57;64.14551;95480.94;;;;
2021/11/08 00:42:08;;;;;;;15.05;10.4;;;;;;;6.57;64.14551;95480.94;;;;
2021/11/08 00:43:09;;;;;;;15.05;10.4;;;;;;;6.57;64.14551;95480.94;;;;
2021/11/08 00:44:11;;;;;;;15.05;10.4;;;;;;;6.57;64.14551;95480.94;;;;
2021/11/08 00:45:11;;;;;;;15.05;10.4;;;;;;;6.57;64.14551;95480.94;;;;
2021/11/08 00:46:12;;;;;;;15.55;10.9;;;;;;;6.61;64.3418;95488.89;;;;
2021/11/08 00:47:13;;;;;;;15.55;10.9;;;;;;;6.61;64.3418;95488.89;;;;
2021/11/08 00:48:15;;;;;;;15.55;10.9;;;;;;;6.61;64.3418;95488.89;;;;
2021/11/08 00:49:16;;;;;;;15.55;10.9;;;;;;;6.61;64.3418;95488.89;;;;
2021/11/08 00:50:16;;;;;;;15.55;10.9;;;;;;;6.61;64.3418;95488.89;;;;
2021/11/08 00:51:18;;;;;;;15.55;10.9;;;;;;;6.61;64.3418;95488.89;;;;
2021/11/08 00:52:19;;;;;;;15.55;10.9;;;;;;;6.61;64.3418;95488.89;;;;
2021/11/08 00:53:19;;;;;;;15.55;10.9;;;;;;;6.61;64.3418;95488.89;;;;
2021/11/08 00:54:20;;;;;;;15.55;10.9;;;;;;;6.61;64.3418;95488.89;;;;
2021/11/08 00:55:23;;;;;;;15.55;10.9;;;;;;;6.61;64.3418;95488.89;;;;
2021/11/08 00:56:24;;;;;;;15.55;10.9;;;;;;;6.61;64.3418;95488.89;;;;
2021/11/08 00:57:28;;;;;;;17.35;11.3;;;;;;;6.58;64.73145;95491.04;;;;
2021/11/08 00:58:33;;;;;;;17.35;11.3;;;;;;;6.58;64.73145;95491.04;;;;
2021/11/08 00:59:33;;;;;;;17.35;11.3;;;;;;;6.58;64.73145;95491.04;;;;
2021/11/08 01:00:34;;;;;;;17.35;11.3;;;;;;;6.58;64.73145;95491.04;;;;
2021/11/08 01:01:35;;;;;;;17.35;11.3;;;;;;;6.58;64.73145;95491.04;;;;
2021/11/08 01:02:36;;;;;;;17.35;11.3;;;;;;;6.58;64.73145;95491.04;;;;
2021/11/08 01:03:37;;;;;;;17.35;11.3;;;;;;;6.58;64.73145;95491.04;;;;
2021/11/08 01:04:41;;;;;;;17.35;11.3;;;;;;;6.58;64.73145;95491.04;;;;
2021/11/08 01:05:42;;;;;;;17.35;11.3;;;;;;;6.58;64.73145;95491.04;;;;
2021/11/08 01:06:43;;;;;;;17.35;11.3;;;;;;;6.58;64.73145;95491.04;;;;
2021/11/08 01:07:45;;;;;;;17.35;11.3;;;;;;;6.58;64.73145;95491.04;;;;
2021/11/08 01:08:46;;;;;;;17.35;11.3;;;;;;;6.58;64.73145;95491.04;;;;
2021/11/08 01:09:47;;;;;;;17.35;11.3;;;;;;;6.58;64.73145;95491.04;;;;
2021/11/08 01:10:48;;;;;;;17.35;11.3;;;;;;;6.58;64.73145;95491.04;;;;
2021/11/08 01:11:49;;;;;;;17.35;11.3;;;;;;;6.58;64.73145;95491.04;;;;
2021/11/08 01:12:50;;;;;;;17.35;11.3;;;;;;;6.58;64.73145;95491.04;;;;
2021/11/08 01:13:50;;;;;;;17.35;11.3;;;;;;;6.58;64.73145;95491.04;;;;
2021/11/08 01:14:51;;;;;;;17.35;11.3;;;;;;;6.58;64.73145;95491.04;;;;
2021/11/08 01:15:52;;;;;;;17.35;11.3;;;;;;;6.58;64.73145;95491.04;;;;
2021/11/08 01:16:56;;;;;;;17.35;11.3;;;;;;;6.58;64.73145;95491.04;;;;
2021/11/08 01:17:57;;;;;;;17.2;11.5;;;;;;;6.52;65.58301;95510.75;;;;
2021/11/08 01:18:57;;;;;;;17.2;11.5;;;;;;;6.52;65.58301;95510.75;;;;
2021/11/08 01:19:58;;;;;;;17.2;11.5;;;;;;;6.52;65.58301;95510.75;;;;
2021/11/08 01:20:59;;;;;;;17.2;11.5;;;;;;;6.52;65.58301;95510.75;;;;
2021/11/08 01:22:05;;;;;;;17.2;11.5;;;;;;;6.52;65.58301;95510.75;;;;
2021/11/08 01:23:07;;;;;;;17.2;11.5;;;;;;;6.52;65.58301;95510.75;;;;
2021/11/08 01:24:08;;;;;;;17.2;11.5;;;;;;;6.52;65.58301;95510.75;;;;
2021/11/08 01:25:09;;;;;;;17.2;11.5;;;;;;;6.52;65.58301;95510.75;;;;
2021/11/08 01:26:12;;;;;;;17.2;11.5;;;;;;;6.52;65.58301;95510.75;;;;
2021/11/08 01:27:13;;;;;;;17.2;11.5;;;;;;;6.52;65.58301;95510.75;;;;
2021/11/08 01:28:14;;;;;;;17.2;11.5;;;;;;;6.52;65.58301;95510.75;;;;
2021/11/08 01:29:15;;;;;;;18.05;10.4;;;;;;;6.49;65.96094;95508.91;;;;
2021/11/08 01:30:17;;;;;;;18.05;10.4;;;;;;;6.49;65.96094;95508.91;;;;
2021/11/08 01:31:22;;;;;;;18.05;10.4;;;;;;;6.49;65.96094;95508.91;;;;
2021/11/08 01:32:23;;;;;;;18.05;10.4;;;;;;;6.49;65.96094;95508.91;;;;
2021/11/08 01:33:24;;;;;;;18.05;10.4;;;;;;;6.49;65.96094;95508.91;;;;
2021/11/08 01:34:25;;;;;;;18.05;10.4;;;;;;;6.49;65.96094;95508.91;;;;
2021/11/08 01:35:30;;;;;;;18.05;10.4;;;;;;;6.49;65.96094;95508.91;;;;
2021/11/08 01:36:37;;;;;;;18.05;10.4;;;;;;;6.49;65.96094;95508.91;;;;
2021/11/08 01:37:38;;;;;;;18.05;10.4;;;;;;;6.49;65.96094;95508.91;;;;
2021/11/08 01:38:40;;;;;;;18.05;10.4;;;;;;;6.49;65.96094;95508.91;;;;
2021/11/08 01:39:44;;;;;;;15.65;10.95;;;;;;;6.48;66.2041;95505.47;;;;
2021/11/08 01:40:44;;;;;;;15.65;10.95;;;;;;;6.48;66.2041;95505.47;;;;
2021/11/08 01:41:46;;;;;;;15.65;10.95;;;;;;;6.48;66.2041;95505.47;;;;
2021/11/08 01:42:47;;;;;;;15.65;10.95;;;;;;;6.48;66.2041;95505.47;;;;
2021/11/08 01:43:47;;;;;;;15.65;10.95;;;;;;;6.48;66.2041;95505.47;;;;
2021/11/08 01:44:49;;;;;;;15.65;10.95;;;;;;;6.48;66.2041;95505.47;;;;
2021/11/08 01:45:49;;;;;;;15.65;10.95;;;;;;;6.48;66.2041;95505.47;;;;
2021/11/08 01:46:50;;;;;;;15.65;10.95;;;;;;;6.48;66.2041;95505.47;;;;
2021/11/08 01:47:51;;;;;;;15.65;10.95;;;;;;;6.48;66.2041;95505.47;;;;
2021/11/08 01:48:52;;;;;;;15.65;10.95;;;;;;;6.48;66.2041;95505.47;;;;
2021/11/08 01:49:52;;;;;;;15.8;10.65;;;;;;;6.51;66.3457;95513.97;;;;
2021/11/08 01:50:54;;;;;;;15.8;10.65;;;;;;;6.51;66.3457;95513.97;;;;
2021/11/08 01:51:54;;;;;;;15.8;10.65;;;;;;;6.51;66.3457;95513.97;;;;
2021/11/08 01:52:56;;;;;;;15.8;10.65;;;;;;;6.51;66.3457;95513.97;;;;
2021/11/08 01:53:57;;;;;;;15.8;10.65;;;;;;;6.51;66.3457;95513.97;;;;
2021/11/08 01:54:58;;;;;;;15.8;10.65;;;;;;;6.51;66.3457;95513.97;;;;
2021/11/08 01:55:59;;;;;;;15.8;10.65;;;;;;;6.51;66.3457;95513.97;;;;
2021/11/08 01:57:01;;;;;;;15.8;10.65;;;;;;;6.51;66.3457;95513.97;;;;
2021/11/08 01:58:02;;;;;;;15.8;10.65;;;;;;;6.51;66.3457;95513.97;;;;
2021/11/08 01:59:02;;;;;;;15.8;10.65;;;;;;;6.51;66.3457;95513.97;;;;
2021/11/08 02:00:04;;;;;;;15.8;10.65;;;;;;;6.51;66.3457;95513.97;;;;
2021/11/08 02:01:06;;;;;;;15.4;10.75;;;;;;;6.45;66.59277;95512.09;;;;
2021/11/08 02:02:07;;;;;;;15.4;10.75;;;;;;;6.45;66.59277;95512.09;;;;
2021/11/08 02:03:08;;;;;;;15.4;10.75;;;;;;;6.45;66.59277;95512.09;;;;
2021/11/08 02:04:10;;;;;;;15.4;10.75;;;;;;;6.45;66.59277;95512.09;;;;
2021/11/08 02:05:11;;;;;;;15.4;10.75;;;;;;;6.45;66.59277;95512.09;;;;
2021/11/08 02:06:12;;;;;;;15.4;10.75;;;;;;;6.45;66.59277;95512.09;;;;
2021/11/08 02:07:12;;;;;;;15.4;10.75;;;;;;;6.45;66.59277;95512.09;;;;
2021/11/08 02:08:13;;;;;;;15.4;10.75;;;;;;;6.45;66.59277;95512.09;;;;
2021/11/08 02:09:16;;;;;;;15.4;10.75;;;;;;;6.45;66.59277;95512.09;;;;
2021/11/08 02:10:16;;;;;;;15.4;10.75;;;;;;;6.45;66.59277;95512.09;;;;
2021/11/08 02:11:20;;;;;;;18.5;11.85;;;;;;;6.4;66.88281;95512.31;;;;
2021/11/08 02:12:21;;;;;;;18.5;11.85;;;;;;;6.4;66.88281;95512.31;;;;
2021/11/08 02:13:22;;;;;;;18.5;11.85;;;;;;;6.4;66.88281;95512.31;;;;
2021/11/08 02:14:23;;;;;;;18.5;11.85;;;;;;;6.4;66.88281;95512.31;;;;
2021/11/08 02:15:24;;;;;;;18.5;11.85;;;;;;;6.4;66.88281;95512.31;;;;
2021/11/08 02:16:24;;;;;;;18.5;11.85;;;;;;;6.4;66.88281;95512.31;;;;
2021/11/08 02:17:25;;;;;;;18.5;11.85;;;;;;;6.4;66.88281;95512.31;;;;
2021/11/08 02:18:26;;;;;;;18.5;11.85;;;;;;;6.4;66.88281;95512.31;;;;
2021/11/08 02:19:27;;;;;;;18.5;11.85;;;;;;;6.4;66.88281;95512.31;;;;
2021/11/08 02:20:28;;;;;;;18.5;11.85;;;;;;;6.4;66.88281;95512.31;;;;
2021/11/08 02:21:30;;;;;;;18.5;11.85;;;;;;;6.4;66.88281;95512.31;;;;
2021/11/08 02:22:31;;;;;;;17.4;11.4;;;;;;;6.38;67.28125;95523.85;;;;
2021/11/08 02:23:32;;;;;;;17.4;11.4;;;;;;;6.38;67.28125;95523.85;;;;
2021/11/08 02:24:34;;;;;;;17.4;11.4;;;;;;;6.38;67.28125;95523.85;;;;
2021/11/08 02:25:37;;;;;;;17.4;11.4;;;;;;;6.38;67.28125;95523.85;;;;
2021/11/08 02:26:38;;;;;;;17.4;11.4;;;;;;;6.38;67.28125;95523.85;;;;
2021/11/08 02:27:42;;;;;;;17.4;11.4;;;;;;;6.38;67.28125;95523.85;;;;
2021/11/08 02:28:44;;;;;;;17.4;11.4;;;;;;;6.38;67.28125;95523.85;;;;
2021/11/08 02:29:47;;;;;;;17.4;11.4;;;;;;;6.38;67.28125;95523.85;;;;
2021/11/08 02:30:53;;;;;;;17.4;11.4;;;;;;;6.38;67.28125;95523.85;;;;
2021/11/08 02:31:56;;;;;;;17.4;11.4;;;;;;;6.38;67.28125;95523.85;;;;
2021/11/08 02:32:57;;;;;;;18.3;11.05;;;;;;;6.35;67.76758;95524.55;;;;
2021/11/08 02:33:59;;;;;;;18.3;11.05;;;;;;;6.35;67.76758;95524.55;;;;
2021/11/08 02:35:00;;;;;;;18.3;11.05;;;;;;;6.35;67.76758;95524.55;;;;
2021/11/08 02:36:03;;;;;;;18.3;11.05;;;;;;;6.35;67.76758;95524.55;;;;
2021/11/08 02:37:04;;;;;;;18.3;11.05;;;;;;;6.35;67.76758;95524.55;;;;
2021/11/08 02:38:05;;;;;;;18.3;11.05;;;;;;;6.35;67.76758;95524.55;;;;
2021/11/08 02:39:06;;;;;;;18.3;11.05;;;;;;;6.35;67.76758;95524.55;;;;
2021/11/08 02:40:07;;;;;;;18.3;11.05;;;;;;;6.35;67.76758;95524.55;;;;
2021/11/08 02:41:10;;;;;;;18.3;11.05;;;;;;;6.35;67.76758;95524.55;;;;
2021/11/08 02:42:12;;;;;;;18.3;11.05;;;;;;;6.35;67.76758;95524.55;;;;
2021/11/08 02:43:20;;;;;;;16.85;11.25;;;;;;;6.31;68.02539;95537.25;;;;
2021/11/08 02:44:21;;;;;;;16.85;11.25;;;;;;;6.31;68.02539;95537.25;;;;
2021/11/08 02:45:22;;;;;;;16.85;11.25;;;;;;;6.31;68.02539;95537.25;;;;
2021/11/08 02:46:26;;;;;;;16.85;11.25;;;;;;;6.31;68.02539;95537.25;;;;
2021/11/08 02:47:27;;;;;;;16.85;11.25;;;;;;;6.31;68.02539;95537.25;;;;
2021/11/08 02:48:28;;;;;;;16.85;11.25;;;;;;;6.31;68.02539;95537.25;;;;
2021/11/08 02:49:30;;;;;;;16.85;11.25;;;;;;;6.31;68.02539;95537.25;;;;
2021/11/08 02:50:32;;;;;;;16.85;11.25;;;;;;;6.31;68.02539;95537.25;;;;
2021/11/08 02:51:33;;;;;;;16.85;11.25;;;;;;;6.31;68.02539;95537.25;;;;
2021/11/08 02:52:34;;;;;;;16.85;11.25;;;;;;;6.31;68.02539;95537.25;;;;
2021/11/08 02:53:35;;;;;;;16.85;11.25;;;;;;;6.31;68.02539;95537.25;;;;
2021/11/08 02:54:38;;;;;;;18;10.9;;;;;;;6.26;68.33496;95529.91;;;;
2021/11/08 02:55:39;;;;;;;18;10.9;;;;;;;6.26;68.33496;95529.91;;;;
2021/11/08 02:56:39;;;;;;;18;10.9;;;;;;;6.26;68.33496;95529.91;;;;
2021/11/08 02:57:40;;;;;;;18;10.9;;;;;;;6.26;68.33496;95529.91;;;;
2021/11/08 02:58:42;;;;;;;18;10.9;;;;;;;6.26;68.33496;95529.91;;;;
2021/11/08 02:59:46;;;;;;;18;10.9;;;;;;;6.26;68.33496;95529.91;;;;
2021/11/08 03:00:47;;;;;;;18;10.9;;;;;;;6.26;68.33496;95529.91;;;;
2021/11/08 03:01:48;;;;;;;18;10.9;;;;;;;6.26;68.33496;95529.91;;;;
2021/11/08 03:02:50;;;;;;;18;10.9;;;;;;;6.26;68.33496;95529.91;;;;
2021/11/08 03:03:54;;;;;;;18;10.9;;;;;;;6.26;68.33496;95529.91;;;;
2021/11/08 03:04:56;;;;;;;15.75;10.85;;;;;;;6.19;68.5791;95518.36;;;;
2021/11/08 03:06:02;;;;;;;15.75;10.85;;;;;;;6.19;68.5791;95518.36;;;;
2021/11/08 03:07:03;;;;;;;15.75;10.85;;;;;;;6.19;68.5791;95518.36;;;;
2021/11/08 03:08:04;;;;;;;15.75;10.85;;;;;;;6.19;68.5791;95518.36;;;;
2021/11/08 03:09:06;;;;;;;15.75;10.85;;;;;;;6.19;68.5791;95518.36;;;;
2021/11/08 03:10:13;;;;;;;15.75;10.85;;;;;;;6.19;68.5791;95518.36;;;;
2021/11/08 03:11:19;;;;;;;15.75;10.85;;;;;;;6.19;68.5791;95518.36;;;;
2021/11/08 03:12:26;;;;;;;15.75;10.85;;;;;;;6.19;68.5791;95518.36;;;;
2021/11/08 03:13:27;;;;;;;15.75;10.85;;;;;;;6.19;68.5791;95518.36;;;;
2021/11/08 03:14:30;;;;;;;15.75;10.85;;;;;;;6.19;68.5791;95518.36;;;;
2021/11/08 03:15:41;;;;;;;16.6;11.05;;;;;;;6.11;68.84277;95522.97;;;;
2021/11/08 03:16:45;;;;;;;16.6;11.05;;;;;;;6.11;68.84277;95522.97;;;;
2021/11/08 03:17:47;;;;;;;16.6;11.05;;;;;;;6.11;68.84277;95522.97;;;;
2021/11/08 03:18:55;;;;;;;16.6;11.05;;;;;;;6.11;68.84277;95522.97;;;;
2021/11/08 03:19:55;;;;;;;16.6;11.05;;;;;;;6.11;68.84277;95522.97;;;;
2021/11/08 03:20:57;;;;;;;16.6;11.05;;;;;;;6.11;68.84277;95522.97;;;;
2021/11/08 03:22:01;;;;;;;16.6;11.05;;;;;;;6.11;68.84277;95522.97;;;;
2021/11/08 03:23:07;;;;;;;16.6;11.05;;;;;;;6.11;68.84277;95522.97;;;;
2021/11/08 03:24:11;;;;;;;16.6;11.05;;;;;;;6.11;68.84277;95522.97;;;;
2021/11/08 03:25:15;;;;;;;16.6;11.05;;;;;;;6.11;68.84277;95522.97;;;;
2021/11/08 03:26:29;;;;;;;17.75;11.3;;;;;;;6.02;69.05078;95522.85;;;;
2021/11/08 03:27:38;;;;;;;17.75;11.3;;;;;;;6.02;69.05078;95522.85;;;;
2021/11/08 03:28:38;;;;;;;17.75;11.3;;;;;;;6.02;69.05078;95522.85;;;;
2021/11/08 03:29:39;;;;;;;17.75;11.3;;;;;;;6.02;69.05078;95522.85;;;;
2021/11/08 03:30:41;;;;;;;17.75;11.3;;;;;;;6.02;69.05078;95522.85;;;;
2021/11/08 03:31:42;;;;;;;17.75;11.3;;;;;;;6.02;69.05078;95522.85;;;;
2021/11/08 03:32:45;;;;;;;17.75;11.3;;;;;;;6.02;69.05078;95522.85;;;;
2021/11/08 03:33:48;;;;;;;17.75;11.3;;;;;;;6.02;69.05078;95522.85;;;;
2021/11/08 03:34:57;;;;;;;17.75;11.3;;;;;;;6.02;69.05078;95522.85;;;;
2021/11/08 03:35:59;;;;;;;17.75;11.3;;;;;;;6.02;69.05078;95522.85;;;;
2021/11/08 03:37:00;;;;;;;15.55;10.5;;;;;;;5.93;69.3125;95531.58;;;;
2021/11/08 03:38:03;;;;;;;15.55;10.5;;;;;;;5.93;69.3125;95531.58;;;;
2021/11/08 03:39:07;;;;;;;15.55;10.5;;;;;;;5.93;69.3125;95531.58;;;;
2021/11/08 03:40:07;;;;;;;15.55;10.5;;;;;;;5.93;69.3125;95531.58;;;;
2021/11/08 03:41:13;;;;;;;15.55;10.5;;;;;;;5.93;69.3125;95531.58;;;;
2021/11/08 03:42:14;;;;;;;15.55;10.5;;;;;;;5.93;69.3125;95531.58;;;;
2021/11/08 03:43:15;;;;;;;15.55;10.5;;;;;;;5.93;69.3125;95531.58;;;;
2021/11/08 03:44:19;;;;;;;15.55;10.5;;;;;;;5.93;69.3125;95531.58;;;;
2021/11/08 03:45:20;;;;;;;15.55;10.5;;;;;;;5.93;69.3125;95531.58;;;;
2021/11/08 03:46:21;;;;;;;15.55;10.5;;;;;;;5.93;69.3125;95531.58;;;;
2021/11/08 03:47:22;;;;;;;16.15;9.849999;;;;;;;5.86;69.48242;95537.44;;;;
2021/11/08 03:48:22;;;;;;;16.15;9.849999;;;;;;;5.86;69.48242;95537.44;;;;
2021/11/08 03:49:25;;;;;;;16.15;9.849999;;;;;;;5.86;69.48242;95537.44;;;;
2021/11/08 03:50:26;;;;;;;16.15;9.849999;;;;;;;5.86;69.48242;95537.44;;;;
2021/11/08 03:51:27;;;;;;;16.15;9.849999;;;;;;;5.86;69.48242;95537.44;;;;
2021/11/08 03:52:28;;;;;;;16.15;9.849999;;;;;;;5.86;69.48242;95537.44;;;;
2021/11/08 03:53:29;;;;;;;16.15;9.849999;;;;;;;5.86;69.48242;95537.44;;;;
2021/11/08 03:54:30;;;;;;;16.15;9.849999;;;;;;;5.86;69.48242;95537.44;;;;
2021/11/08 03:55:30;;;;;;;16.15;9.849999;;;;;;;5.86;69.48242;95537.44;;;;
2021/11/08 03:56:32;;;;;;;16.15;9.849999;;;;;;;5.86;69.48242;95537.44;;;;
2021/11/08 03:57:33;;;;;;;16.15;9.849999;;;;;;;5.86;69.48242;95537.44;;;;
2021/11/08 03:58:33;;;;;;;17.45;11.4;;;;;;;5.85;69.71191;95549.28;;;;
2021/11/08 03:59:34;;;;;;;17.45;11.4;;;;;;;5.85;69.71191;95549.28;;;;
2021/11/08 04:00:35;;;;;;;17.45;11.4;;;;;;;5.85;69.71191;95549.28;;;;
2021/11/08 04:01:36;;;;;;;17.45;11.4;;;;;;;5.85;69.71191;95549.28;;;;
2021/11/08 04:02:38;;;;;;;17.45;11.4;;;;;;;5.85;69.71191;95549.28;;;;
2021/11/08 04:03:40;;;;;;;17.45;11.4;;;;;;;5.85;69.71191;95549.28;;;;
2021/11/08 04:04:40;;;;;;;17.45;11.4;;;;;;;5.85;69.71191;95549.28;;;;
2021/11/08 04:05:41;;;;;;;17.45;11.4;;;;;;;5.85;69.71191;95549.28;;;;
2021/11/08 04:06:43;;;;;;;17.45;11.4;;;;;;;5.85;69.71191;95549.28;;;;
2021/11/08 04:07:44;;;;;;;17.45;11.4;;;;;;;5.85;69.71191;95549.28;;;;
2021/11/08 04:08:46;;;;;;;16.35;10.95;;;;;;;5.88;69.81348;95546.07;;;;
2021/11/08 04:09:46;;;;;;;16.35;10.95;;;;;;;5.88;69.81348;95546.07;;;;
2021/11/08 04:10:48;;;;;;;16.35;10.95;;;;;;;5.88;69.81348;95546.07;;;;
2021/11/08 04:11:54;;;;;;;16.35;10.95;;;;;;;5.88;69.81348;95546.07;;;;
2021/11/08 04:13:00;;;;;;;16.35;10.95;;;;;;;5.88;69.81348;95546.07;;;;
2021/11/08 04:14:03;;;;;;;16.35;10.95;;;;;;;5.88;69.81348;95546.07;;;;
2021/11/08 04:15:06;;;;;;;16.35;10.95;;;;;;;5.88;69.81348;95546.07;;;;
2021/11/08 04:16:13;;;;;;;16.35;10.95;;;;;;;5.88;69.81348;95546.07;;;;
2021/11/08 04:17:14;;;;;;;16.35;10.95;;;;;;;5.88;69.81348;95546.07;;;;
2021/11/08 04:18:15;;;;;;;16.35;10.95;;;;;;;5.88;69.81348;95546.07;;;;
2021/11/08 04:19:19;;;;;;;17.1;10.4;;;;;;;5.81;69.9707;95546.53;;;;
2021/11/08 04:20:19;;;;;;;17.1;10.4;;;;;;;5.81;69.9707;95546.53;;;;
2021/11/08 04:21:23;;;;;;;17.1;10.4;;;;;;;5.81;69.9707;95546.53;;;;
2021/11/08 04:22:25;;;;;;;17.1;10.4;;;;;;;5.81;69.9707;95546.53;;;;
2021/11/08 04:23:26;;;;;;;17.1;10.4;;;;;;;5.81;69.9707;95546.53;;;;
2021/11/08 04:24:27;;;;;;;17.1;10.4;;;;;;;5.81;69.9707;95546.53;;;;
2021/11/08 04:25:29;;;;;;;17.1;10.4;;;;;;;5.81;69.9707;95546.53;;;;
2021/11/08 04:26:32;;;;;;;17.1;10.4;;;;;;;5.81;69.9707;95546.53;;;;
2021/11/08 04:27:36;;;;;;;17.1;10.4;;;;;;;5.81;69.9707;95546.53;;;;
2021/11/08 04:28:38;;;;;;;17.1;10.4;;;;;;;5.81;69.9707;95546.53;;;;
2021/11/08 04:29:39;;;;;;;17.1;10.4;;;;;;;5.81;69.9707;95546.53;;;;
2021/11/08 04:30:42;;;;;;;15.5;9.500002;;;;;;;5.7;70.21875;95556.47;;;;
2021/11/08 04:31:43;;;;;;;15.5;9.500002;;;;;;;5.7;70.21875;95556.47;;;;
2021/11/08 04:32:51;;;;;;;15.5;9.500002;;;;;;;5.7;70.21875;95556.47;;;;
2021/11/08 04:33:55;;;;;;;15.5;9.500002;;;;;;;5.7;70.21875;95556.47;;;;
2021/11/08 04:35:03;;;;;;;15.5;9.500002;;;;;;;5.7;70.21875;95556.47;;;;
2021/11/08 04:36:27;;;;;;;15.5;9.500002;;;;;;;5.7;70.21875;95556.47;;;;
2021/11/08 04:37:46;;;;;;;15.5;9.500002;;;;;;;5.7;70.21875;95556.47;;;;
2021/11/08 04:38:54;;;;;;;15.5;9.500002;;;;;;;5.7;70.21875;95556.47;;;;
2021/11/08 04:40:07;;;;;;;15.5;9.500002;;;;;;;5.7;70.21875;95556.47;;;;
2021/11/08 04:41:16;;;;;;;16.5;10.75;;;;;;;5.7;70.38672;95554.75;;;;
2021/11/08 04:42:21;;;;;;;16.5;10.75;;;;;;;5.7;70.38672;95554.75;;;;
2021/11/08 04:43:34;;;;;;;16.5;10.75;;;;;;;5.7;70.38672;95554.75;;;;
2021/11/08 04:44:55;;;;;;;16.5;10.75;;;;;;;5.7;70.38672;95554.75;;;;
2021/11/08 04:46:25;;;;;;;16.5;10.75;;;;;;;5.7;70.38672;95554.75;;;;
2021/11/08 04:52:54;;;;;;;17.6;9.8;;;;;;;5.75;70.38574;95567.44;;;;
2021/11/08 04:54:02;;;;;;;17.6;9.8;;;;;;;5.75;70.38574;95567.44;;;;
2021/11/08 04:55:12;;;;;;;17.6;9.8;;;;;;;5.75;70.38574;95567.44;;;;
2021/11/08 05:23:03;;;;;;;13.8;9.35;;;;;;;5.54;70.70996;95577.43;;;;
2021/11/08 05:24:29;;;;;;;18.2;9.9;;;;;;;5.44;70.96875;95576.93;;;;
2021/11/08 05:27:51;;;;;;;18.2;9.9;;;;;;;5.44;70.96875;95576.93;;;;
2021/11/08 05:29:55;;;;;;;18.2;9.9;;;;;;;5.44;70.96875;95576.93;;;;
2021/11/08 05:30:56;;;;;;;18.2;9.9;;;;;;;5.44;70.96875;95576.93;;;;
2021/11/08 05:31:57;;;;;;;18.2;9.9;;;;;;;5.44;70.96875;95576.93;;;;
2021/11/08 05:32:57;;;;;;;18.2;9.9;;;;;;;5.44;70.96875;95576.93;;;;
2021/11/08 05:33:58;;;;;;;13.55;9.049999;;;;;;;5.17;71.24219;95587.08;;;;
2021/11/08 05:34:59;;;;;;;13.55;9.049999;;;;;;;5.17;71.24219;95587.08;;;;
2021/11/08 05:36:00;;;;;;;13.55;9.049999;;;;;;;5.17;71.24219;95587.08;;;;
2021/11/08 05:37:00;;;;;;;13.55;9.049999;;;;;;;5.17;71.24219;95587.08;;;;
2021/11/08 05:38:06;;;;;;;13.55;9.049999;;;;;;;5.17;71.24219;95587.08;;;;
2021/11/08 05:39:06;;;;;;;13.55;9.049999;;;;;;;5.17;71.24219;95587.08;;;;
2021/11/08 05:40:10;;;;;;;13.55;9.049999;;;;;;;5.17;71.24219;95587.08;;;;
2021/11/08 05:41:13;;;;;;;13.55;9.049999;;;;;;;5.17;71.24219;95587.08;;;;
2021/11/08 05:42:14;;;;;;;13.55;9.049999;;;;;;;5.17;71.24219;95587.08;;;;
2021/11/08 05:43:16;;;;;;;13.55;9.049999;;;;;;;5.17;71.24219;95587.08;;;;
2021/11/08 05:44:16;;;;;;;13.55;9.049999;;;;;;;5.17;71.24219;95587.08;;;;
2021/11/08 05:45:17;;;;;;;13.85;8.9;;;;;;;4.88;71.54297;95595.78;;;;
2021/11/08 05:46:19;;;;;;;13.85;8.9;;;;;;;4.88;71.54297;95595.78;;;;
2021/11/08 05:47:20;;;;;;;13.85;8.9;;;;;;;4.88;71.54297;95595.78;;;;
2021/11/08 05:48:22;;;;;;;13.85;8.9;;;;;;;4.88;71.54297;95595.78;;;;
2021/11/08 05:49:23;;;;;;;13.85;8.9;;;;;;;4.88;71.54297;95595.78;;;;
2021/11/08 05:50:23;;;;;;;13.85;8.9;;;;;;;4.88;71.54297;95595.78;;;;
2021/11/08 05:51:24;;;;;;;13.85;8.9;;;;;;;4.88;71.54297;95595.78;;;;
2021/11/08 05:52:26;;;;;;;13.85;8.9;;;;;;;4.88;71.54297;95595.78;;;;
2021/11/08 05:53:26;;;;;;;13.85;8.9;;;;;;;4.88;71.54297;95595.78;;;;
2021/11/08 05:54:27;;;;;;;13.85;8.9;;;;;;;4.88;71.54297;95595.78;;;;
2021/11/08 05:55:34;;;;;;;14.15;9.1;;;;;;;4.66;71.70801;95611.02;;;;
2021/11/08 05:56:46;;;;;;;14.15;9.1;;;;;;;4.66;71.70801;95611.02;;;;
2021/11/08 05:57:56;;;;;;;14.15;9.1;;;;;;;4.66;71.70801;95611.02;;;;
2021/11/08 05:59:15;;;;;;;14.15;9.1;;;;;;;4.66;71.70801;95611.02;;;;
2021/11/08 06:51:10;;;;;;;12.35;7.7;;;;;;;3.53;72.29785;95656.73;;;;
2021/11/08 06:52:13;;;;;;;12.35;7.7;;;;;;;3.53;72.29785;95656.73;;;;
2021/11/08 06:53:18;;;;;;;12.35;7.7;;;;;;;3.53;72.29785;95656.73;;;;
2021/11/08 06:54:18;;;;;;;12.35;7.7;;;;;;;3.53;72.29785;95656.73;;;;
2021/11/08 06:55:20;;;;;;;12.35;7.7;;;;;;;3.53;72.29785;95656.73;;;;
2021/11/08 06:56:25;;;;;;;12.35;7.7;;;;;;;3.53;72.29785;95656.73;;;;
2021/11/08 06:57:31;;;;;;;12.35;7.7;;;;;;;3.53;72.29785;95656.73;;;;
2021/11/08 06:58:33;;;;;;;12.35;7.7;;;;;;;3.53;72.29785;95656.73;;;;
2021/11/08 06:59:34;;;;;;;12.55;8.549999;;;;;;;3.47;72.28809;95661.5;;;;
2021/11/08 07:00:35;;;;;;;12.55;8.549999;;;;;;;3.47;72.28809;95661.5;;;;
2021/11/08 07:01:35;;;;;;;12.55;8.549999;;;;;;;3.47;72.28809;95661.5;;;;
2021/11/08 07:02:36;;;;;;;12.55;8.549999;;;;;;;3.47;72.28809;95661.5;;;;
2021/11/08 07:03:37;;;;;;;12.55;8.549999;;;;;;;3.47;72.28809;95661.5;;;;
2021/11/08 07:04:38;;;;;;;12.55;8.549999;;;;;;;3.47;72.28809;95661.5;;;;
2021/11/08 07:05:39;;;;;;;12.55;8.549999;;;;;;;3.47;72.28809;95661.5;;;;
2021/11/08 07:06:40;;;;;;;12.55;8.549999;;;;;;;3.47;72.28809;95661.5;;;;
2021/11/08 07:07:40;;;;;;;12.55;8.549999;;;;;;;3.47;72.28809;95661.5;;;;
2021/11/08 07:08:41;;;;;;;12.55;8.549999;;;;;;;3.47;72.28809;95661.5;;;;
2021/11/08 07:09:42;;;;;;;12.55;8.549999;;;;;;;3.47;72.28809;95661.5;;;;
2021/11/08 07:10:42;;;;;;;13.65;8.7;;;;;;;3.54;72.22852;95669.93;;;;
2021/11/08 07:11:43;;;;;;;13.65;8.7;;;;;;;3.54;72.22852;95669.93;;;;
2021/11/08 07:12:44;;;;;;;13.65;8.7;;;;;;;3.54;72.22852;95669.93;;;;
2021/11/08 07:13:45;;;;;;;13.65;8.7;;;;;;;3.54;72.22852;95669.93;;;;
2021/11/08 07:14:46;;;;;;;13.65;8.7;;;;;;;3.54;72.22852;95669.93;;;;
2021/11/08 07:15:47;;;;;;;13.65;8.7;;;;;;;3.54;72.22852;95669.93;;;;
2021/11/08 07:16:48;;;;;;;13.65;8.7;;;;;;;3.54;72.22852;95669.93;;;;
2021/11/08 07:17:49;;;;;;;13.65;8.7;;;;;;;3.54;72.22852;95669.93;;;;
2021/11/08 07:18:51;;;;;;;13.65;8.7;;;;;;;3.54;72.22852;95669.93;;;;
2021/11/08 07:19:51;;;;;;;13.65;8.7;;;;;;;3.54;72.22852;95669.93;;;;
2021/11/08 07:20:52;;;;;;;13.9;8.749999;;;;;;;3.7;72.06445;95674.25;;;;
2021/11/08 07:21:52;;;;;;;13.9;8.749999;;;;;;;3.7;72.06445;95674.25;;;;